DLH01Y EDDF-LFKB
Flight info
| Callsign | DLH01Y |
|---|---|
| Flight time | N/A |
| Altitude | 37000 |
| Route | ANEKI6E ANEKI Y163 NATOR DCT TRA DCT RIPUS DCT GERSA DCT SOSON DCT ODINA DCT SRN DCT VOG DCT ITCAP DCT OLETI M858 LIGUR |
| Aircraft | A320/M-SDE2E3FGIJ1LORWXYZ/HB1 |
Departure
| Time | 2026-05-08 07:05 |
|---|---|
| Airport | Frankfurt Main Airport (EDDF) |
Arrival
| Time | N/A |
|---|---|
| Airport | Bastia-Poretta International airport (LFKB) |
| Time | Latitude | Longitude | Altitude | Speed | Heading |
|---|---|---|---|---|---|
| 2026-05-08 06:17 | 50.04480 | 8.56538 | 359 ft | 0 kts | 163° |
| 2026-05-08 06:51 | 50.04487 | 8.56535 | 362 ft | 4 kts | 163° |
| 2026-05-08 06:52 | 50.04513 | 8.56524 | 363 ft | 4 kts | 167° |
| 2026-05-08 06:52 | 50.04539 | 8.56517 | 361 ft | 4 kts | 180° |
| 2026-05-08 06:52 | 50.04564 | 8.56524 | 358 ft | 4 kts | 203° |
| 2026-05-08 06:52 | 50.04589 | 8.56541 | 358 ft | 3 kts | 204° |
| 2026-05-08 06:53 | 50.04593 | 8.56543 | 359 ft | 0 kts | 204° |
| 2026-05-08 06:55 | 50.04592 | 8.56542 | 356 ft | 1 kts | 207° |
| 2026-05-08 06:55 | 50.04594 | 8.56531 | 356 ft | 2 kts | 282° |
| 2026-05-08 06:55 | 50.04603 | 8.56503 | 361 ft | 3 kts | 295° |
| 2026-05-08 06:56 | 50.04605 | 8.56484 | 365 ft | 1 kts | 261° |
| 2026-05-08 06:56 | 50.04586 | 8.56466 | 358 ft | 1 kts | 205° |
| 2026-05-08 06:57 | 50.04573 | 8.56456 | 356 ft | 7 kts | 205° |
| 2026-05-08 06:57 | 50.04535 | 8.56423 | 357 ft | 6 kts | 219° |
| 2026-05-08 06:57 | 50.04515 | 8.56376 | 358 ft | 5 kts | 245° |
| 2026-05-08 06:57 | 50.04504 | 8.56331 | 359 ft | 4 kts | 249° |
| 2026-05-08 06:58 | 50.04492 | 8.56285 | 358 ft | 7 kts | 249° |
| 2026-05-08 06:58 | 50.04471 | 8.56196 | 357 ft | 11 kts | 250° |
| 2026-05-08 06:58 | 50.04441 | 8.56070 | 363 ft | 13 kts | 246° |
| 2026-05-08 06:58 | 50.04374 | 8.56038 | 362 ft | 11 kts | 163° |
| 2026-05-08 06:59 | 50.04306 | 8.56069 | 360 ft | 10 kts | 177° |
| 2026-05-08 06:59 | 50.04256 | 8.56009 | 358 ft | 9 kts | 246° |
| 2026-05-08 06:59 | 50.04220 | 8.55922 | 357 ft | 10 kts | 210° |
| 2026-05-08 06:59 | 50.04136 | 8.55945 | 354 ft | 14 kts | 159° |
| 2026-05-08 07:00 | 50.04049 | 8.55941 | 357 ft | 14 kts | 229° |
| 2026-05-08 07:00 | 50.04012 | 8.55800 | 355 ft | 16 kts | 249° |
| 2026-05-08 07:00 | 50.03962 | 8.55589 | 356 ft | 26 kts | 249° |
| 2026-05-08 07:00 | 50.03896 | 8.55308 | 350 ft | 28 kts | 250° |
| 2026-05-08 07:01 | 50.03824 | 8.55015 | 354 ft | 30 kts | 249° |
| 2026-05-08 07:01 | 50.03754 | 8.54715 | 348 ft | 28 kts | 249° |
| 2026-05-08 07:01 | 50.03689 | 8.54453 | 349 ft | 26 kts | 249° |
| 2026-05-08 07:01 | 50.03625 | 8.54178 | 348 ft | 28 kts | 249° |
| 2026-05-08 07:02 | 50.03559 | 8.53900 | 340 ft | 27 kts | 249° |
| 2026-05-08 07:02 | 50.03490 | 8.53612 | 334 ft | 29 kts | 247° |
| 2026-05-08 07:02 | 50.03424 | 8.53333 | 337 ft | 25 kts | 250° |
| 2026-05-08 07:02 | 50.03359 | 8.53064 | 333 ft | 28 kts | 249° |
| 2026-05-08 07:03 | 50.03300 | 8.52819 | 332 ft | 15 kts | 248° |
| 2026-05-08 07:03 | 50.03285 | 8.52755 | 333 ft | 0 kts | 249° |
| 2026-05-08 07:03 | 50.03276 | 8.52720 | 333 ft | 11 kts | 249° |
| 2026-05-08 07:04 | 50.03213 | 8.52610 | 334 ft | 14 kts | 207° |
| 2026-05-08 07:04 | 50.03126 | 8.52596 | 335 ft | 12 kts | 179° |
| 2026-05-08 07:04 | 50.02933 | 8.52597 | 335 ft | 59 kts | 179° |
| 2026-05-08 07:04 | 50.02284 | 8.52605 | 332 ft | 124 kts | 179° |
| 2026-05-08 07:05 | 50.01249 | 8.52638 | 384 ft | 168 kts | 175° |
| 2026-05-08 07:05 | 50.00090 | 8.52714 | 1055 ft | 165 kts | 175° |
| 2026-05-08 07:05 | 49.98951 | 8.52786 | 1736 ft | 163 kts | 176° |
| 2026-05-08 07:05 | 49.97805 | 8.52859 | 2194 ft | 173 kts | 175° |
| 2026-05-08 07:06 | 49.96529 | 8.52940 | 2411 ft | 194 kts | 176° |
| 2026-05-08 07:06 | 49.95109 | 8.53031 | 2563 ft | 215 kts | 176° |
| 2026-05-08 07:06 | 49.93567 | 8.53128 | 2860 ft | 228 kts | 177° |
| 2026-05-08 07:06 | 49.91970 | 8.53225 | 3419 ft | 231 kts | 177° |
| 2026-05-08 07:07 | 49.90355 | 8.53328 | 3988 ft | 233 kts | 177° |
| 2026-05-08 07:07 | 49.88723 | 8.53433 | 4567 ft | 235 kts | 177° |
| 2026-05-08 07:07 | 49.87085 | 8.53538 | 5165 ft | 236 kts | 177° |
| 2026-05-08 07:07 | 49.85446 | 8.53646 | 5740 ft | 236 kts | 178° |
| 2026-05-08 07:08 | 49.83797 | 8.53759 | 6289 ft | 238 kts | 178° |
| 2026-05-08 07:08 | 49.82131 | 8.53874 | 6808 ft | 241 kts | 178° |
| 2026-05-08 07:08 | 49.80453 | 8.53991 | 7320 ft | 242 kts | 178° |
| 2026-05-08 07:08 | 49.78760 | 8.54110 | 7839 ft | 244 kts | 179° |
| 2026-05-08 07:09 | 49.77055 | 8.54024 | 8246 ft | 250 kts | 185° |
| 2026-05-08 07:09 | 49.75290 | 8.53794 | 8637 ft | 257 kts | 186° |
| 2026-05-08 07:09 | 49.73501 | 8.53555 | 9114 ft | 259 kts | 186° |
| 2026-05-08 07:09 | 49.71698 | 8.53312 | 9598 ft | 261 kts | 187° |
| 2026-05-08 07:10 | 49.69879 | 8.53067 | 10069 ft | 264 kts | 186° |
| 2026-05-08 07:10 | 49.67995 | 8.52808 | 10214 ft | 280 kts | 187° |
| 2026-05-08 07:10 | 49.66003 | 8.52533 | 10340 ft | 294 kts | 186° |
| 2026-05-08 07:10 | 49.63900 | 8.52249 | 10505 ft | 315 kts | 186° |
| 2026-05-08 07:11 | 49.61667 | 8.51955 | 11100 ft | 326 kts | 186° |
| 2026-05-08 07:11 | 49.59388 | 8.51658 | 11866 ft | 331 kts | 186° |
| 2026-05-08 07:11 | 49.57079 | 8.51358 | 12654 ft | 335 kts | 186° |
| 2026-05-08 07:11 | 49.54744 | 8.51053 | 13430 ft | 339 kts | 186° |
| 2026-05-08 07:12 | 49.52379 | 8.50740 | 14171 ft | 343 kts | 186° |
| 2026-05-08 07:12 | 49.49991 | 8.50425 | 14853 ft | 346 kts | 186° |
| 2026-05-08 07:12 | 49.47582 | 8.50108 | 15528 ft | 349 kts | 186° |
| 2026-05-08 07:12 | 49.45151 | 8.49791 | 16203 ft | 352 kts | 187° |
| 2026-05-08 07:13 | 49.42695 | 8.49469 | 16866 ft | 356 kts | 187° |
| 2026-05-08 07:13 | 49.40218 | 8.49143 | 17527 ft | 359 kts | 187° |
| 2026-05-08 07:13 | 49.37715 | 8.48817 | 18189 ft | 363 kts | 187° |
| 2026-05-08 07:13 | 49.35189 | 8.48490 | 18788 ft | 366 kts | 187° |
| 2026-05-08 07:14 | 49.32674 | 8.48164 | 19348 ft | 369 kts | 187° |
| 2026-05-08 07:14 | 49.30107 | 8.47828 | 19911 ft | 372 kts | 187° |
| 2026-05-08 07:14 | 49.27518 | 8.47491 | 20476 ft | 375 kts | 187° |
| 2026-05-08 07:14 | 49.24910 | 8.47151 | 21025 ft | 378 kts | 187° |
| 2026-05-08 07:15 | 49.22278 | 8.46810 | 21576 ft | 381 kts | 187° |
| 2026-05-08 07:15 | 49.19594 | 8.46466 | 22105 ft | 383 kts | 187° |
| 2026-05-08 07:15 | 49.16966 | 8.46129 | 22640 ft | 386 kts | 187° |
| 2026-05-08 07:15 | 49.14281 | 8.45784 | 23175 ft | 388 kts | 187° |
| 2026-05-08 07:16 | 49.11579 | 8.45433 | 23686 ft | 391 kts | 187° |
| 2026-05-08 07:16 | 49.08860 | 8.45074 | 24121 ft | 393 kts | 187° |
| 2026-05-08 07:16 | 49.06132 | 8.44628 | 24553 ft | 394 kts | 192° |
| 2026-05-08 07:16 | 49.03452 | 8.43731 | 24969 ft | 395 kts | 195° |
| 2026-05-08 07:17 | 49.00766 | 8.42790 | 25404 ft | 397 kts | 195° |
| 2026-05-08 07:17 | 48.98068 | 8.41848 | 25844 ft | 398 kts | 195° |
| 2026-05-08 07:17 | 48.95364 | 8.40907 | 26281 ft | 400 kts | 195° |
| 2026-05-08 07:17 | 48.92643 | 8.39965 | 26708 ft | 402 kts | 195° |
| 2026-05-08 07:18 | 48.89910 | 8.39021 | 27118 ft | 404 kts | 195° |
| 2026-05-08 07:18 | 48.87165 | 8.38073 | 27530 ft | 406 kts | 195° |
| 2026-05-08 07:18 | 48.84406 | 8.37120 | 27928 ft | 408 kts | 195° |
| 2026-05-08 07:18 | 48.81632 | 8.36163 | 28330 ft | 410 kts | 195° |
| 2026-05-08 07:19 | 48.78845 | 8.35202 | 28731 ft | 412 kts | 195° |
| 2026-05-08 07:19 | 48.76047 | 8.34214 | 29111 ft | 414 kts | 195° |
| 2026-05-08 07:19 | 48.73242 | 8.33192 | 29492 ft | 416 kts | 196° |
| 2026-05-08 07:19 | 48.70423 | 8.32151 | 29859 ft | 418 kts | 196° |
| 2026-05-08 07:20 | 48.67593 | 8.31101 | 30214 ft | 420 kts | 196° |
| 2026-05-08 07:20 | 48.64752 | 8.30047 | 30514 ft | 422 kts | 196° |
| 2026-05-08 07:20 | 48.61898 | 8.28993 | 30807 ft | 423 kts | 196° |
| 2026-05-08 07:20 | 48.59031 | 8.27946 | 31099 ft | 425 kts | 195° |
| 2026-05-08 07:21 | 48.56147 | 8.26905 | 31387 ft | 427 kts | 195° |
| 2026-05-08 07:21 | 48.53254 | 8.25867 | 31697 ft | 428 kts | 195° |
| 2026-05-08 07:21 | 48.50334 | 8.25042 | 32101 ft | 428 kts | 188° |
| 2026-05-08 07:21 | 48.47354 | 8.24922 | 32497 ft | 430 kts | 179° |
| 2026-05-08 07:22 | 48.44386 | 8.25498 | 32891 ft | 430 kts | 173° |
| 2026-05-08 07:22 | 48.41439 | 8.26233 | 33301 ft | 429 kts | 173° |
| 2026-05-08 07:22 | 48.38496 | 8.26953 | 33717 ft | 428 kts | 173° |
| 2026-05-08 07:22 | 48.35603 | 8.27649 | 34110 ft | 426 kts | 173° |
| 2026-05-08 07:23 | 48.32676 | 8.28349 | 34424 ft | 426 kts | 173° |
| 2026-05-08 07:23 | 48.29753 | 8.29050 | 34708 ft | 425 kts | 173° |
| 2026-05-08 07:23 | 48.26831 | 8.29751 | 34974 ft | 426 kts | 173° |
| 2026-05-08 07:23 | 48.23904 | 8.30454 | 35224 ft | 426 kts | 173° |
| 2026-05-08 07:24 | 48.20975 | 8.31162 | 35481 ft | 426 kts | 173° |
| 2026-05-08 07:24 | 48.18045 | 8.31868 | 35725 ft | 427 kts | 173° |
| 2026-05-08 07:24 | 48.15114 | 8.32571 | 35974 ft | 427 kts | 173° |
| 2026-05-08 07:24 | 48.12179 | 8.33283 | 36210 ft | 427 kts | 173° |
| 2026-05-08 07:25 | 48.09243 | 8.33998 | 36433 ft | 428 kts | 173° |
| 2026-05-08 07:25 | 48.06306 | 8.34713 | 36657 ft | 428 kts | 173° |
| 2026-05-08 07:25 | 48.00419 | 8.36140 | 37039 ft | 429 kts | 174° |
| 2026-05-08 07:26 | 47.97479 | 8.36854 | 37074 ft | 427 kts | 174° |
| 2026-05-08 07:26 | 47.91626 | 8.38271 | 37065 ft | 426 kts | 174° |
| 2026-05-08 07:27 | 47.85776 | 8.39675 | 37070 ft | 426 kts | 174° |
| 2026-05-08 07:27 | 47.79926 | 8.41079 | 37070 ft | 426 kts | 174° |
| 2026-05-08 07:28 | 47.75058 | 8.42229 | 37079 ft | 426 kts | 174° |
| 2026-05-08 07:28 | 47.69204 | 8.43620 | 37052 ft | 426 kts | 174° |
| 2026-05-08 07:29 | 47.63337 | 8.44716 | 37072 ft | 425 kts | 178° |
| 2026-05-08 07:29 | 47.57452 | 8.45490 | 37076 ft | 424 kts | 178° |
| 2026-05-08 07:30 | 47.51572 | 8.46250 | 37080 ft | 424 kts | 178° |
| 2026-05-08 07:30 | 47.45695 | 8.47095 | 37080 ft | 424 kts | 178° |
| 2026-05-08 07:31 | 47.39820 | 8.47974 | 37089 ft | 424 kts | 178° |
| 2026-05-08 07:31 | 47.33948 | 8.48849 | 37091 ft | 424 kts | 178° |
| 2026-05-08 07:32 | 47.28077 | 8.49709 | 37090 ft | 424 kts | 178° |
| 2026-05-08 07:32 | 47.22209 | 8.50551 | 37084 ft | 424 kts | 178° |
| 2026-05-08 07:33 | 47.16340 | 8.51404 | 37081 ft | 424 kts | 178° |
| 2026-05-08 07:33 | 47.10475 | 8.52264 | 37079 ft | 424 kts | 178° |
| 2026-05-08 07:34 | 47.04609 | 8.53107 | 37065 ft | 423 kts | 178° |
| 2026-05-08 07:34 | 46.98751 | 8.53900 | 37072 ft | 423 kts | 179° |
| 2026-05-08 07:35 | 46.92887 | 8.54677 | 37078 ft | 423 kts | 179° |
| 2026-05-08 07:35 | 46.87028 | 8.55457 | 37080 ft | 423 kts | 178° |
| 2026-05-08 07:36 | 46.81210 | 8.56242 | 37077 ft | 423 kts | 179° |
| 2026-05-08 07:36 | 46.75345 | 8.57034 | 37079 ft | 423 kts | 179° |
| 2026-05-08 07:37 | 46.69489 | 8.57821 | 37096 ft | 422 kts | 179° |
| 2026-05-08 07:37 | 46.63652 | 8.58607 | 37089 ft | 421 kts | 179° |
| 2026-05-08 07:38 | 46.57815 | 8.59383 | 37095 ft | 421 kts | 179° |
| 2026-05-08 07:38 | 46.51978 | 8.60167 | 37100 ft | 421 kts | 179° |
| 2026-05-08 07:39 | 46.46145 | 8.60943 | 37095 ft | 421 kts | 179° |
| 2026-05-08 07:39 | 46.40309 | 8.61707 | 37098 ft | 421 kts | 179° |
| 2026-05-08 07:40 | 46.34483 | 8.62471 | 37101 ft | 421 kts | 179° |
| 2026-05-08 07:40 | 46.28649 | 8.63237 | 37099 ft | 421 kts | 178° |
| 2026-05-08 07:41 | 46.22817 | 8.64018 | 37088 ft | 420 kts | 179° |
| 2026-05-08 07:41 | 46.17003 | 8.64790 | 37085 ft | 420 kts | 179° |
| 2026-05-08 07:42 | 46.11186 | 8.65548 | 37095 ft | 419 kts | 179° |
| 2026-05-08 07:42 | 46.05376 | 8.66311 | 37091 ft | 419 kts | 179° |
| 2026-05-08 07:43 | 45.99572 | 8.67075 | 37090 ft | 418 kts | 179° |
| 2026-05-08 07:43 | 45.93779 | 8.67824 | 37088 ft | 418 kts | 179° |
| 2026-05-08 07:44 | 45.87987 | 8.68577 | 37084 ft | 418 kts | 179° |
| 2026-05-08 07:44 | 45.82194 | 8.69336 | 37069 ft | 418 kts | 179° |
| 2026-05-08 07:45 | 45.76406 | 8.70098 | 37081 ft | 417 kts | 179° |
| 2026-05-08 07:45 | 45.70621 | 8.70844 | 37087 ft | 417 kts | 179° |
| 2026-05-08 07:46 | 45.64840 | 8.71578 | 37088 ft | 417 kts | 179° |
| 2026-05-08 07:46 | 45.59098 | 8.72309 | 37084 ft | 417 kts | 179° |
| 2026-05-08 07:47 | 45.53282 | 8.73064 | 37087 ft | 417 kts | 179° |
| 2026-05-08 07:47 | 45.47502 | 8.73807 | 37087 ft | 417 kts | 179° |
| 2026-05-08 07:48 | 45.41723 | 8.74547 | 37050 ft | 417 kts | 179° |
| 2026-05-08 07:48 | 45.35946 | 8.75282 | 37057 ft | 417 kts | 179° |
| 2026-05-08 07:49 | 45.30168 | 8.76021 | 37061 ft | 417 kts | 179° |
| 2026-05-08 07:49 | 45.24388 | 8.76759 | 37067 ft | 417 kts | 179° |
| 2026-05-08 07:50 | 45.18608 | 8.77499 | 37063 ft | 417 kts | 179° |
| 2026-05-08 07:50 | 45.12871 | 8.78222 | 37066 ft | 417 kts | 179° |
| 2026-05-08 07:51 | 45.07095 | 8.78951 | 37069 ft | 417 kts | 179° |
| 2026-05-08 07:51 | 45.01317 | 8.79686 | 37065 ft | 417 kts | 179° |
| 2026-05-08 07:52 | 44.95541 | 8.80412 | 37084 ft | 417 kts | 179° |
| 2026-05-08 07:52 | 44.89765 | 8.81131 | 37075 ft | 417 kts | 179° |
| 2026-05-08 07:53 | 44.83988 | 8.81859 | 37072 ft | 417 kts | 179° |
| 2026-05-08 07:53 | 44.78216 | 8.82585 | 36968 ft | 415 kts | 179° |
| 2026-05-08 07:53 | 44.75345 | 8.82943 | 36407 ft | 413 kts | 179° |
| 2026-05-08 07:54 | 44.72491 | 8.83296 | 35860 ft | 410 kts | 179° |
| 2026-05-08 07:54 | 44.69675 | 8.83642 | 35467 ft | 403 kts | 179° |
| 2026-05-08 07:54 | 44.66904 | 8.83986 | 35085 ft | 397 kts | 179° |
| 2026-05-08 07:54 | 44.64174 | 8.84328 | 34693 ft | 391 kts | 179° |
| 2026-05-08 07:55 | 44.61492 | 8.84667 | 34333 ft | 384 kts | 179° |
| 2026-05-08 07:55 | 44.58848 | 8.85002 | 33950 ft | 378 kts | 179° |
| 2026-05-08 07:55 | 44.56249 | 8.85326 | 33462 ft | 373 kts | 179° |
| 2026-05-08 07:55 | 44.53671 | 8.85646 | 32929 ft | 370 kts | 179° |
| 2026-05-08 07:56 | 44.51145 | 8.85958 | 32395 ft | 369 kts | 179° |
| 2026-05-08 07:56 | 44.48597 | 8.86273 | 31841 ft | 367 kts | 179° |
| 2026-05-08 07:56 | 44.46062 | 8.86582 | 31305 ft | 365 kts | 179° |
| 2026-05-08 07:56 | 44.43533 | 8.86891 | 30786 ft | 364 kts | 178° |
| 2026-05-08 07:57 | 44.41014 | 8.87203 | 30282 ft | 363 kts | 178° |
| 2026-05-08 07:57 | 44.38504 | 8.87516 | 29730 ft | 362 kts | 178° |
| 2026-05-08 07:57 | 44.36002 | 8.87825 | 29146 ft | 360 kts | 178° |
| 2026-05-08 07:57 | 44.33513 | 8.88130 | 28591 ft | 359 kts | 178° |
| 2026-05-08 07:58 | 44.31031 | 8.88433 | 28048 ft | 357 kts | 178° |
| 2026-05-08 07:58 | 44.28558 | 8.88735 | 27540 ft | 356 kts | 178° |
| 2026-05-08 07:58 | 44.26096 | 8.89036 | 27010 ft | 355 kts | 178° |
| 2026-05-08 07:58 | 44.23639 | 8.89336 | 26483 ft | 354 kts | 178° |
| 2026-05-08 07:59 | 44.21186 | 8.89639 | 25980 ft | 353 kts | 178° |
| 2026-05-08 07:59 | 44.18740 | 8.89941 | 25482 ft | 353 kts | 178° |
| 2026-05-08 07:59 | 44.16299 | 8.90243 | 24999 ft | 352 kts | 178° |
| 2026-05-08 07:59 | 44.13863 | 8.90545 | 24528 ft | 351 kts | 178° |
| 2026-05-08 08:00 | 44.11434 | 8.90841 | 24051 ft | 350 kts | 178° |
| 2026-05-08 08:00 | 44.09007 | 8.91137 | 23586 ft | 350 kts | 178° |
| 2026-05-08 08:00 | 44.06585 | 8.91432 | 23055 ft | 349 kts | 178° |
| 2026-05-08 08:00 | 44.04174 | 8.91723 | 22587 ft | 347 kts | 178° |
| 2026-05-08 08:01 | 44.01775 | 8.92013 | 22143 ft | 345 kts | 178° |
| 2026-05-08 08:01 | 43.99393 | 8.92303 | 21716 ft | 342 kts | 177° |
| 2026-05-08 08:01 | 43.97029 | 8.92592 | 21300 ft | 340 kts | 177° |
| 2026-05-08 08:01 | 43.94680 | 8.92879 | 20886 ft | 337 kts | 177° |
| 2026-05-08 08:02 | 43.92349 | 8.93162 | 20481 ft | 335 kts | 177° |
| 2026-05-08 08:02 | 43.90035 | 8.93440 | 20090 ft | 333 kts | 177° |
| 2026-05-08 08:02 | 43.87733 | 8.93717 | 19700 ft | 331 kts | 177° |
| 2026-05-08 08:02 | 43.85447 | 8.93995 | 19322 ft | 329 kts | 177° |
| 2026-05-08 08:03 | 43.83174 | 8.94273 | 18948 ft | 327 kts | 177° |
| 2026-05-08 08:03 | 43.80915 | 8.94549 | 18593 ft | 325 kts | 177° |
| 2026-05-08 08:03 | 43.78666 | 8.94824 | 18219 ft | 324 kts | 177° |
| 2026-05-08 08:03 | 43.76460 | 8.95094 | 17830 ft | 322 kts | 176° |
| 2026-05-08 08:04 | 43.74236 | 8.95366 | 17438 ft | 320 kts | 176° |
| 2026-05-08 08:04 | 43.72024 | 8.95632 | 17056 ft | 318 kts | 176° |
| 2026-05-08 08:04 | 43.69825 | 8.95894 | 16689 ft | 316 kts | 176° |
| 2026-05-08 08:04 | 43.67641 | 8.96157 | 16356 ft | 314 kts | 176° |
| 2026-05-08 08:05 | 43.65466 | 8.96419 | 15974 ft | 313 kts | 176° |
| 2026-05-08 08:05 | 43.63298 | 8.96679 | 15626 ft | 312 kts | 176° |
| 2026-05-08 08:05 | 43.61142 | 8.96936 | 15307 ft | 310 kts | 176° |
| 2026-05-08 08:05 | 43.59000 | 8.97192 | 14984 ft | 308 kts | 176° |
| 2026-05-08 08:06 | 43.56881 | 8.97599 | 14652 ft | 308 kts | 165° |
| 2026-05-08 08:06 | 43.54947 | 8.98847 | 14329 ft | 308 kts | 150° |
| 2026-05-08 08:06 | 43.53108 | 9.00363 | 14048 ft | 307 kts | 150° |
| 2026-05-08 08:06 | 43.51279 | 9.01891 | 14008 ft | 308 kts | 150° |
| 2026-05-08 08:07 | 43.49448 | 9.03426 | 14016 ft | 309 kts | 150° |
| 2026-05-08 08:07 | 43.47614 | 9.04962 | 14016 ft | 309 kts | 150° |
| 2026-05-08 08:07 | 43.45775 | 9.06496 | 14015 ft | 310 kts | 150° |
| 2026-05-08 08:07 | 43.43930 | 9.08031 | 14016 ft | 310 kts | 150° |
| 2026-05-08 08:08 | 43.42084 | 9.09562 | 14010 ft | 310 kts | 150° |
| 2026-05-08 08:08 | 43.40241 | 9.11093 | 14012 ft | 309 kts | 150° |
| 2026-05-08 08:08 | 43.38400 | 9.12625 | 14013 ft | 309 kts | 150° |
| 2026-05-08 08:08 | 43.36560 | 9.14154 | 14013 ft | 309 kts | 150° |
| 2026-05-08 08:09 | 43.34718 | 9.15684 | 14011 ft | 309 kts | 150° |
| 2026-05-08 08:09 | 43.32874 | 9.17211 | 14013 ft | 309 kts | 150° |
| 2026-05-08 08:09 | 43.31029 | 9.18734 | 14013 ft | 309 kts | 150° |
| 2026-05-08 08:09 | 43.29181 | 9.20248 | 14014 ft | 309 kts | 153° |
| 2026-05-08 08:10 | 43.27184 | 9.21217 | 13841 ft | 303 kts | 171° |
| 2026-05-08 08:10 | 43.25108 | 9.21717 | 13453 ft | 303 kts | 169° |
| 2026-05-08 08:10 | 43.23077 | 9.22302 | 13082 ft | 302 kts | 169° |
| 2026-05-08 08:10 | 43.21005 | 9.22932 | 12730 ft | 300 kts | 168° |
| 2026-05-08 08:11 | 43.18973 | 9.23581 | 12372 ft | 299 kts | 167° |
| 2026-05-08 08:11 | 43.16995 | 9.24310 | 12027 ft | 298 kts | 165° |
| 2026-05-08 08:11 | 43.14980 | 9.25103 | 11668 ft | 297 kts | 164° |
| 2026-05-08 08:11 | 43.13030 | 9.25891 | 11320 ft | 296 kts | 164° |
| 2026-05-08 08:12 | 43.11061 | 9.26685 | 10963 ft | 294 kts | 164° |
| 2026-05-08 08:12 | 43.09104 | 9.27466 | 10993 ft | 294 kts | 164° |
| 2026-05-08 08:12 | 43.07134 | 9.28241 | 11012 ft | 295 kts | 164° |
| 2026-05-08 08:12 | 43.05157 | 9.29013 | 11009 ft | 296 kts | 164° |
| 2026-05-08 08:13 | 43.03181 | 9.29781 | 11012 ft | 295 kts | 164° |
| 2026-05-08 08:13 | 43.01203 | 9.30543 | 11013 ft | 295 kts | 163° |
| 2026-05-08 08:13 | 42.99395 | 9.31826 | 11010 ft | 295 kts | 140° |
| 2026-05-08 08:13 | 42.97913 | 9.33771 | 11015 ft | 296 kts | 134° |
| 2026-05-08 08:14 | 42.96487 | 9.35793 | 11009 ft | 296 kts | 134° |
| 2026-05-08 08:14 | 42.95066 | 9.37824 | 11005 ft | 296 kts | 134° |
| 2026-05-08 08:14 | 42.93646 | 9.39858 | 11002 ft | 296 kts | 134° |
| 2026-05-08 08:14 | 42.92226 | 9.41890 | 11002 ft | 296 kts | 134° |
| 2026-05-08 08:15 | 42.90806 | 9.43920 | 11005 ft | 296 kts | 134° |
| 2026-05-08 08:15 | 42.89395 | 9.45942 | 10726 ft | 293 kts | 134° |
| 2026-05-08 08:15 | 42.87986 | 9.47943 | 10381 ft | 292 kts | 134° |
| 2026-05-08 08:15 | 42.87050 | 9.49258 | 10146 ft | 291 kts | 133° |
| 2026-05-08 08:16 | 42.85638 | 9.51234 | 9786 ft | 290 kts | 134° |
| 2026-05-08 08:16 | 42.84227 | 9.53194 | 9390 ft | 289 kts | 134° |
| 2026-05-08 08:16 | 42.82824 | 9.55144 | 9015 ft | 287 kts | 133° |
| 2026-05-08 08:16 | 42.81423 | 9.57072 | 8634 ft | 286 kts | 134° |
| 2026-05-08 08:17 | 42.80028 | 9.58994 | 8250 ft | 284 kts | 134° |
| 2026-05-08 08:17 | 42.78559 | 9.60774 | 7857 ft | 283 kts | 148° |
| 2026-05-08 08:17 | 42.76748 | 9.61782 | 7471 ft | 282 kts | 162° |
| 2026-05-08 08:17 | 42.74870 | 9.62526 | 7080 ft | 281 kts | 163° |
| 2026-05-08 08:18 | 42.72983 | 9.63225 | 6663 ft | 281 kts | 163° |
| 2026-05-08 08:18 | 42.71095 | 9.63904 | 6266 ft | 280 kts | 163° |
| 2026-05-08 08:18 | 42.69214 | 9.64574 | 5849 ft | 279 kts | 164° |
| 2026-05-08 08:18 | 42.67365 | 9.65247 | 5625 ft | 269 kts | 163° |
| 2026-05-08 08:19 | 42.65629 | 9.65882 | 5449 ft | 249 kts | 163° |
| 2026-05-08 08:19 | 42.63976 | 9.66477 | 5005 ft | 244 kts | 163° |
| 2026-05-08 08:19 | 42.62332 | 9.67057 | 4585 ft | 244 kts | 163° |
| 2026-05-08 08:19 | 42.60689 | 9.67635 | 4231 ft | 244 kts | 164° |